createdAt,value
2023-02-05T00:01:44.523Z,3.70
2023-02-05T00:04:12.155Z,3.20
2023-02-05T00:06:39.789Z,3.70
2023-02-05T00:09:08.806Z,3.07
2023-02-05T00:11:36.460Z,3.53
2023-02-05T00:14:04.456Z,3.50
2023-02-05T00:16:32.183Z,3.27
2023-02-05T00:18:59.949Z,3.73
2023-02-05T00:21:27.641Z,3.47
2023-02-05T00:23:55.386Z,4.00
2023-02-05T00:26:24.405Z,3.63
2023-02-05T00:28:52.063Z,3.37
2023-02-05T00:31:22.376Z,3.60
2023-02-05T00:33:51.443Z,3.50
2023-02-05T00:36:21.201Z,4.17
2023-02-05T00:38:49.668Z,3.37
2023-02-05T00:41:18.006Z,3.50
2023-02-05T00:43:47.125Z,3.57
2023-02-05T00:46:15.790Z,3.30
2023-02-05T00:48:43.953Z,3.87
2023-02-05T00:51:12.215Z,3.90
2023-02-05T00:53:40.154Z,3.83
2023-02-05T00:56:08.129Z,3.93
2023-02-05T00:58:35.953Z,4.00
2023-02-05T01:01:05.383Z,3.30
2023-02-05T01:03:33.067Z,4.30
2023-02-05T01:06:03.108Z,3.93
2023-02-05T01:08:30.811Z,4.00
2023-02-05T01:10:58.567Z,3.87
2023-02-05T01:13:26.612Z,3.63
2023-02-05T01:15:54.861Z,3.33
2023-02-05T01:18:23.954Z,3.43
2023-02-05T01:20:51.638Z,3.60
2023-02-05T01:23:19.308Z,3.83
2023-02-05T01:25:47.068Z,3.03
2023-02-05T01:28:14.828Z,3.37
2023-02-05T01:30:42.599Z,3.37
2023-02-05T01:33:10.571Z,3.03
2023-02-05T01:35:39.635Z,3.10
2023-02-05T01:38:07.348Z,2.53
2023-02-05T01:40:35.046Z,1.47
2023-02-05T01:43:02.844Z,2.40
2023-02-05T01:45:53.027Z,2.13
2023-02-05T01:48:25.327Z,2.83
2023-02-05T01:50:58.252Z,2.83
2023-02-05T01:53:28.036Z,2.90
2023-02-05T01:55:58.137Z,2.67
2023-02-05T01:58:28.517Z,2.30
2023-02-05T02:00:56.772Z,2.90
2023-02-05T02:03:27.904Z,3.30
2023-02-05T02:05:57.431Z,2.30
2023-02-05T02:08:25.180Z,3.30
2023-02-05T02:10:54.626Z,3.40
2023-02-05T02:13:23.938Z,3.47
2023-02-05T02:15:52.263Z,3.27
2023-02-05T02:18:27.483Z,3.20
2023-02-05T02:21:16.107Z,2.80
2023-02-05T02:23:58.947Z,3.17
2023-02-05T02:26:42.618Z,2.83
2023-02-05T02:29:18.598Z,3.57
2023-02-05T02:31:52.197Z,2.67
2023-02-05T02:34:30.611Z,2.77
2023-02-05T02:37:04.641Z,3.43
2023-02-05T02:39:38.872Z,3.10
2023-02-05T02:42:14.069Z,3.27
2023-02-05T02:44:49.443Z,3.20
2023-02-05T02:47:19.878Z,3.13
2023-02-05T02:49:50.675Z,2.60
2023-02-05T02:52:21.668Z,3.47
2023-02-05T02:54:53.259Z,3.23
2023-02-05T02:57:23.573Z,3.33
2023-02-05T02:59:55.997Z,2.90
2023-02-05T03:02:24.294Z,2.77
2023-02-05T03:04:56.239Z,2.80
2023-02-05T03:07:27.547Z,2.67
2023-02-05T03:10:01.554Z,1.60
2023-02-05T03:12:29.436Z,2.30
2023-02-05T03:14:58.875Z,3.17
2023-02-05T03:17:27.684Z,3.00
2023-02-05T03:20:05.561Z,2.70
2023-02-05T03:22:33.346Z,3.20
2023-02-05T03:25:02.416Z,2.67
2023-02-05T03:27:30.245Z,3.20
2023-02-05T03:29:59.375Z,3.10
2023-02-05T03:32:41.488Z,3.40
2023-02-05T03:35:20.701Z,2.90
2023-02-05T03:37:57.482Z,2.80
2023-02-05T03:40:31.257Z,2.77
2023-02-05T03:43:07.857Z,2.63
2023-02-05T03:45:47.596Z,3.00
2023-02-05T03:48:48.432Z,2.97
2023-02-05T03:51:26.781Z,2.53
2023-02-05T03:54:04.201Z,3.50
2023-02-05T03:56:38.767Z,2.90
2023-02-05T03:59:07.697Z,2.90
2023-02-05T04:01:37.052Z,3.33
2023-02-05T04:04:04.796Z,3.50
2023-02-05T04:06:32.638Z,3.13
2023-02-05T04:09:00.302Z,2.47
2023-02-05T04:11:28.084Z,2.70
2023-02-05T04:13:55.783Z,3.00
2023-02-05T04:16:23.493Z,3.27
2023-02-05T04:18:52.510Z,2.87
2023-02-05T04:21:20.160Z,2.63
2023-02-05T04:23:47.917Z,2.50
2023-02-05T04:26:15.635Z,3.10
2023-02-05T04:28:43.276Z,2.30
2023-02-05T04:31:12.386Z,2.63
2023-02-05T04:33:40.193Z,2.93
2023-02-05T04:36:10.043Z,2.50
2023-02-05T04:38:37.877Z,2.90
2023-02-05T04:41:05.774Z,3.10
2023-02-05T04:43:33.456Z,2.97
2023-02-05T04:46:06.242Z,3.30
2023-02-05T04:48:33.908Z,2.87
2023-02-05T04:51:01.645Z,3.00
2023-02-05T04:53:30.763Z,2.90
2023-02-05T04:56:05.829Z,3.30
2023-02-05T04:58:33.622Z,2.27
2023-02-05T05:01:01.517Z,3.23
2023-02-05T05:03:29.226Z,3.40
2023-02-05T05:05:57.176Z,3.10
2023-02-05T05:08:24.821Z,3.00
2023-02-05T05:10:53.826Z,1.67
2023-02-05T05:13:21.446Z,2.90
2023-02-05T05:15:54.511Z,2.40
2023-02-05T05:18:22.489Z,2.13
2023-02-05T05:20:50.157Z,2.57
2023-02-05T05:23:18.062Z,2.83
2023-02-05T05:25:47.307Z,2.57
2023-02-05T05:28:17.643Z,3.30
2023-02-05T05:30:46.800Z,2.93
2023-02-05T05:33:14.673Z,2.77
2023-02-05T05:35:42.698Z,2.90
2023-02-05T05:38:10.415Z,2.80
2023-02-05T05:40:55.429Z,2.70
2023-02-05T05:43:42.146Z,2.53
2023-02-05T05:46:09.819Z,2.80
2023-02-05T05:48:37.459Z,3.10
2023-02-05T05:51:05.599Z,1.73
2023-02-05T05:53:33.886Z,3.70
2023-02-05T05:56:01.642Z,2.80
2023-02-05T05:58:30.718Z,3.07
2023-02-05T06:00:58.532Z,3.30
2023-02-05T06:03:26.441Z,3.07
2023-02-05T06:05:54.123Z,2.90
2023-02-05T06:08:21.763Z,3.83
2023-02-05T06:10:49.463Z,3.53
2023-02-05T06:13:17.252Z,3.17
2023-02-05T06:15:47.398Z,3.47
2023-02-05T06:18:15.232Z,4.23
2023-02-05T06:20:42.884Z,3.30
2023-02-05T06:23:10.579Z,3.53
2023-02-05T06:25:38.345Z,3.30
2023-02-05T06:28:06.243Z,3.17
2023-02-05T06:30:33.864Z,1.10
2023-02-05T06:33:02.982Z,2.67
2023-02-05T06:35:30.796Z,3.20
2023-02-05T06:37:58.497Z,3.40
2023-02-05T06:40:28.056Z,2.37
2023-02-05T06:42:56.243Z,2.50
2023-02-05T06:45:24.006Z,2.90
2023-02-05T06:47:53.168Z,2.87
2023-02-05T06:50:22.174Z,2.93
2023-02-05T06:52:50.068Z,3.13
2023-02-05T06:55:18.031Z,2.67
2023-02-05T06:57:45.764Z,3.20
2023-02-05T07:00:14.950Z,3.30
2023-02-05T07:02:42.806Z,2.83
2023-02-05T07:05:10.778Z,3.30
2023-02-05T07:07:40.497Z,3.10
2023-02-05T07:10:08.521Z,3.50
2023-02-05T07:12:36.142Z,3.23
2023-02-05T07:15:03.873Z,2.80
2023-02-05T07:17:31.627Z,3.60
2023-02-05T07:19:59.424Z,3.30
2023-02-05T07:22:27.134Z,2.53
2023-02-05T07:24:56.118Z,2.90
2023-02-05T07:27:23.778Z,3.30
2023-02-05T07:29:51.480Z,3.00
2023-02-05T07:32:19.231Z,3.03
2023-02-05T07:34:47.005Z,2.67
2023-02-05T07:37:14.760Z,2.77
2023-02-05T07:39:42.735Z,2.23
2023-02-05T07:42:12.244Z,2.20
2023-02-05T07:44:39.906Z,1.87
2023-02-05T07:47:07.590Z,3.00
2023-02-05T07:49:35.862Z,3.30
2023-02-05T07:52:03.707Z,3.60
2023-02-05T07:54:31.449Z,3.40
2023-02-05T07:57:01.799Z,3.10
2023-02-05T07:59:31.296Z,1.33
2023-02-05T08:01:58.953Z,2.83
2023-02-05T08:04:26.746Z,2.13
2023-02-05T08:06:54.500Z,2.73
2023-02-05T08:09:22.147Z,2.67
2023-02-05T08:11:49.788Z,2.67
2023-02-05T08:14:17.495Z,2.77
2023-02-05T08:16:46.570Z,3.03
2023-02-05T08:19:16.228Z,3.90
2023-02-05T08:21:44.311Z,3.80
2023-02-05T08:24:12.082Z,3.17
2023-02-05T08:26:39.758Z,3.20
2023-02-05T08:29:08.186Z,2.97
2023-02-05T08:31:36.844Z,2.63
2023-02-05T08:34:06.162Z,3.20
2023-02-05T08:36:33.783Z,3.00
2023-02-05T08:39:01.491Z,3.20
2023-02-05T08:41:29.182Z,3.27
2023-02-05T08:43:56.855Z,3.73
2023-02-05T08:46:29.583Z,3.97
2023-02-05T08:48:59.435Z,3.50
2023-02-05T08:51:29.062Z,3.80
2023-02-05T08:53:56.736Z,3.60
2023-02-05T08:56:24.419Z,3.53
2023-02-05T08:58:52.126Z,3.63
2023-02-05T09:01:20.060Z,3.60
2023-02-05T09:03:47.825Z,4.50
2023-02-05T09:06:17.071Z,4.10
2023-02-05T09:08:46.845Z,4.13
2023-02-05T09:11:14.608Z,3.67
2023-02-05T09:13:42.294Z,3.00
2023-02-05T09:16:12.140Z,3.13
2023-02-05T09:18:39.984Z,4.03
2023-02-05T09:21:09.184Z,3.50
2023-02-05T09:23:37.078Z,3.90
2023-02-05T09:26:06.994Z,3.70
2023-02-05T09:28:34.641Z,3.30
2023-02-05T09:31:07.626Z,3.10
2023-02-05T09:33:35.439Z,2.80
2023-02-05T09:36:07.129Z,3.93
2023-02-05T09:38:34.780Z,2.77
2023-02-05T09:41:06.148Z,3.03
2023-02-05T09:43:49.140Z,2.83
2023-02-05T09:46:24.517Z,3.00
2023-02-05T09:48:58.568Z,3.40
2023-02-05T09:51:33.697Z,2.90
2023-02-05T09:54:07.514Z,3.00
2023-02-05T09:56:37.372Z,3.00
2023-02-05T09:59:07.495Z,2.80
2023-02-05T10:01:45.386Z,2.93
2023-02-05T10:04:13.936Z,2.33
2023-02-05T10:07:02.325Z,2.80
2023-02-05T10:09:46.240Z,2.77
2023-02-05T10:12:27.866Z,2.60
2023-02-05T10:15:12.387Z,2.93
2023-02-05T10:17:51.722Z,2.77
2023-02-05T10:20:35.420Z,3.00
2023-02-05T10:23:14.846Z,3.10
2023-02-05T10:25:54.977Z,2.93
2023-02-05T10:28:42.004Z,3.10
2023-02-05T10:31:21.022Z,2.60
2023-02-05T10:33:55.875Z,2.97
2023-02-05T10:36:25.554Z,2.37
2023-02-05T10:38:56.420Z,3.03
2023-02-05T10:41:28.513Z,3.10
2023-02-05T10:44:05.908Z,2.83
2023-02-05T10:46:36.466Z,3.17
2023-02-05T10:49:09.241Z,3.63
2023-02-05T10:51:40.866Z,2.97
2023-02-05T10:54:18.183Z,3.40
2023-02-05T10:56:46.929Z,3.70
2023-02-05T10:59:22.342Z,3.00
2023-02-05T11:01:52.178Z,4.03
2023-02-05T11:04:29.144Z,3.40
2023-02-05T11:06:56.864Z,3.60
2023-02-05T11:09:33.301Z,5.30
2023-02-05T11:12:03.202Z,5.60
2023-02-05T11:14:35.378Z,3.80
2023-02-05T11:17:18.990Z,5.03
2023-02-05T11:19:54.019Z,4.33
2023-02-05T11:22:28.927Z,3.90
2023-02-05T11:25:08.036Z,3.73
2023-02-05T11:27:36.718Z,5.93
2023-02-05T11:30:51.993Z,4.07
2023-02-05T11:33:26.811Z,4.53
2023-02-05T11:35:57.865Z,5.17
2023-02-05T11:38:31.146Z,4.87
2023-02-05T11:41:01.350Z,11.63
2023-02-05T11:43:32.256Z,13.67
2023-02-05T11:46:02.315Z,6.80
2023-02-05T11:48:39.088Z,11.93
2023-02-05T11:51:10.297Z,36.57
2023-02-05T11:53:39.587Z,9.00
2023-02-05T11:56:11.144Z,4.30
2023-02-05T11:58:38.864Z,3.67
2023-02-05T12:01:21.154Z,4.27
2023-02-05T12:03:59.613Z,9.33
2023-02-05T12:06:34.407Z,8.37
2023-02-05T12:09:02.609Z,4.60
2023-02-05T12:11:59.533Z,3.93
2023-02-05T12:14:37.067Z,4.70
2023-02-05T12:17:19.144Z,5.37
2023-02-05T12:19:56.489Z,4.67
2023-02-05T12:22:37.363Z,4.77
2023-02-05T12:25:16.881Z,4.20
2023-02-05T12:27:58.313Z,3.33
2023-02-05T12:30:35.495Z,3.30
2023-02-05T12:33:15.385Z,3.77
2023-02-05T12:35:58.243Z,4.13
2023-02-05T12:38:37.991Z,4.47
2023-02-05T12:41:16.999Z,4.73
2023-02-05T12:43:47.346Z,4.57
2023-02-05T12:46:32.809Z,3.67
2023-02-05T12:49:16.827Z,4.53
2023-02-05T12:51:56.753Z,4.67
2023-02-05T12:54:39.638Z,6.17
2023-02-05T12:57:11.814Z,6.07
2023-02-05T12:59:42.211Z,5.70
2023-02-05T13:02:23.801Z,5.93
2023-02-05T13:04:56.087Z,4.77
2023-02-05T13:07:33.748Z,5.13
2023-02-05T13:10:04.528Z,4.67
2023-02-05T13:12:36.941Z,3.60
2023-02-05T13:15:15.632Z,5.13
2023-02-05T13:17:51.844Z,4.30
2023-02-05T13:20:43.716Z,5.67
2023-02-05T13:23:31.884Z,4.17
2023-02-05T13:26:17.872Z,3.00
2023-02-05T13:28:47.914Z,5.40
2023-02-05T13:31:31.557Z,4.10
2023-02-05T13:34:04.520Z,3.80
2023-02-05T13:37:08.895Z,3.50
2023-02-05T13:40:03.847Z,3.43
2023-02-05T13:43:07.532Z,3.60
2023-02-05T13:46:13.957Z,3.77
2023-02-05T13:49:05.642Z,4.20
2023-02-05T13:51:43.080Z,3.23
2023-02-05T13:54:39.574Z,3.53
2023-02-05T13:57:37.225Z,3.47
2023-02-05T14:00:11.433Z,4.13
2023-02-05T14:02:42.943Z,4.07
2023-02-05T14:05:13.529Z,3.73
2023-02-05T14:07:46.567Z,4.20
2023-02-05T14:10:26.852Z,3.80
2023-02-05T14:13:11.197Z,3.80
2023-02-05T14:15:41.709Z,4.27
2023-02-05T14:18:12.478Z,3.83
2023-02-05T14:20:45.422Z,3.90
2023-02-05T14:23:15.635Z,3.70
2023-02-05T14:26:13.137Z,4.40
2023-02-05T14:28:50.757Z,4.00
2023-02-05T14:31:58.315Z,4.30
2023-02-05T14:34:45.585Z,4.40
2023-02-05T14:37:36.911Z,4.83
2023-02-05T14:40:23.049Z,4.07
2023-02-05T14:42:55.075Z,4.20
2023-02-05T14:45:28.328Z,4.77
2023-02-05T14:47:57.841Z,4.30
2023-02-05T14:50:28.676Z,4.30
2023-02-05T14:53:00.964Z,4.53
2023-02-05T14:55:34.363Z,3.67
2023-02-05T14:58:04.237Z,4.37
2023-02-05T15:00:37.008Z,3.93
2023-02-05T15:03:25.655Z,4.00
2023-02-05T15:06:00.720Z,4.00
2023-02-05T15:08:41.702Z,4.83
2023-02-05T15:11:15.806Z,5.00
2023-02-05T15:13:44.003Z,4.60
2023-02-05T15:16:22.378Z,4.93
2023-02-05T15:18:53.835Z,4.93
2023-02-05T15:21:28.274Z,4.60
2023-02-05T15:24:02.390Z,5.30
2023-02-05T15:26:41.541Z,4.63
2023-02-05T15:29:14.846Z,4.30
2023-02-05T15:31:47.469Z,5.80
2023-02-05T15:34:32.048Z,4.33
2023-02-05T15:37:06.381Z,3.70
2023-02-05T15:39:40.706Z,4.50
2023-02-05T15:42:11.660Z,4.83
2023-02-05T15:44:39.316Z,4.23
2023-02-05T15:47:15.313Z,4.87
2023-02-05T15:49:46.612Z,4.43
2023-02-05T15:52:20.189Z,5.77
2023-02-05T15:54:47.992Z,5.30
2023-02-05T15:57:21.473Z,4.83
2023-02-05T15:59:51.097Z,5.40
2023-02-05T16:02:23.180Z,5.23
2023-02-05T16:04:57.459Z,5.33
2023-02-05T16:07:27.259Z,5.03
2023-02-05T16:09:57.089Z,4.87
2023-02-05T16:12:25.449Z,5.33
2023-02-05T16:15:00.598Z,4.97
2023-02-05T16:17:38.071Z,4.50
2023-02-05T16:20:21.022Z,5.37
2023-02-05T16:22:55.280Z,5.27
2023-02-05T16:25:38.066Z,5.13
2023-02-05T16:28:13.845Z,5.63
2023-02-05T16:30:44.267Z,6.13
2023-02-05T16:33:26.316Z,5.60
2023-02-05T16:35:54.961Z,5.67
2023-02-05T16:38:24.154Z,5.80
2023-02-05T16:40:54.847Z,5.80
2023-02-05T16:43:36.773Z,5.40
2023-02-05T16:46:26.574Z,5.73
2023-02-05T16:48:57.681Z,5.30
2023-02-05T16:51:52.533Z,5.20
2023-02-05T16:54:32.265Z,5.47
2023-02-05T16:57:08.282Z,5.40
2023-02-05T16:59:40.360Z,4.90
2023-02-05T17:02:23.247Z,4.60
2023-02-05T17:04:54.385Z,4.93
2023-02-05T17:07:23.489Z,4.37
2023-02-05T17:09:51.608Z,6.33
2023-02-05T17:12:40.887Z,5.90
2023-02-05T17:15:33.936Z,5.60
2023-02-05T17:18:11.024Z,5.33
2023-02-05T17:20:40.019Z,6.10
2023-02-05T17:23:09.831Z,5.23
2023-02-05T17:25:39.352Z,6.40
2023-02-05T17:28:10.931Z,6.73
2023-02-05T17:30:38.686Z,6.13
2023-02-05T17:33:07.631Z,5.73
2023-02-05T17:35:35.878Z,6.00
2023-02-05T17:38:04.927Z,6.80
2023-02-05T17:40:33.478Z,6.53
2023-02-05T17:43:01.251Z,6.13
2023-02-05T17:45:32.915Z,6.10
2023-02-05T17:48:00.640Z,7.10
2023-02-05T17:50:28.673Z,6.93
2023-02-05T17:52:56.341Z,6.93
2023-02-05T17:55:25.680Z,7.50
2023-02-05T17:57:53.376Z,7.43
2023-02-05T18:00:24.092Z,6.93
2023-02-05T18:02:53.652Z,7.33
2023-02-05T18:05:21.646Z,6.33
2023-02-05T18:07:51.897Z,5.93
2023-02-05T18:10:23.221Z,5.53
2023-02-05T18:12:52.645Z,5.13
2023-02-05T18:15:20.826Z,5.50
2023-02-05T18:17:48.558Z,5.43
2023-02-05T18:20:19.450Z,5.37
2023-02-05T18:22:47.406Z,5.23
2023-02-05T18:25:15.114Z,5.47
2023-02-05T18:27:42.865Z,5.40
2023-02-05T18:30:13.316Z,5.67
2023-02-05T18:32:41.005Z,7.03
2023-02-05T18:35:12.395Z,7.67
2023-02-05T18:37:40.144Z,6.93
2023-02-05T18:40:08.674Z,7.67
2023-02-05T18:42:36.354Z,8.00
2023-02-05T18:45:04.780Z,9.40
2023-02-05T18:47:33.834Z,7.57
2023-02-05T18:50:01.497Z,7.90
2023-02-05T18:52:30.400Z,8.37
2023-02-05T18:54:58.110Z,6.60
2023-02-05T18:57:25.813Z,7.07
2023-02-05T18:59:53.979Z,6.73
2023-02-05T19:02:21.692Z,7.23
2023-02-05T19:04:55.773Z,7.60
2023-02-05T19:07:24.818Z,6.27
2023-02-05T19:09:53.009Z,8.23
2023-02-05T19:12:20.967Z,7.83
2023-02-05T19:14:49.531Z,8.13
2023-02-05T19:17:17.574Z,7.30
2023-02-05T19:19:45.286Z,7.53
2023-02-05T19:22:14.336Z,6.90
2023-02-05T19:24:42.991Z,7.47
2023-02-05T19:27:10.693Z,7.43
2023-02-05T19:29:39.986Z,7.63
2023-02-05T19:32:08.047Z,7.70
2023-02-05T19:34:38.384Z,8.53
2023-02-05T19:37:06.088Z,8.07
2023-02-05T19:39:35.185Z,9.07
2023-02-05T19:42:02.970Z,9.17
2023-02-05T19:44:32.157Z,9.60
2023-02-05T19:46:59.907Z,9.97
2023-02-05T19:49:27.594Z,8.37
2023-02-05T19:51:59.295Z,7.60
2023-02-05T19:54:26.991Z,7.17
2023-02-05T19:56:56.277Z,7.10
2023-02-05T19:59:23.976Z,7.13
2023-02-05T20:01:51.767Z,6.50
2023-02-05T20:04:22.101Z,7.00
2023-02-05T20:06:52.361Z,6.80
2023-02-05T20:09:20.155Z,7.33
2023-02-05T20:11:50.845Z,10.20
2023-02-05T20:14:20.391Z,8.80
2023-02-05T20:16:48.416Z,8.40
2023-02-05T20:19:17.703Z,8.20
2023-02-05T20:21:46.420Z,9.00
2023-02-05T20:24:16.233Z,9.43
2023-02-05T20:26:44.803Z,8.43
2023-02-05T20:29:30.163Z,9.80
2023-02-05T20:32:01.771Z,9.13
2023-02-05T20:34:30.724Z,9.03
2023-02-05T20:37:00.487Z,8.23
2023-02-05T20:39:30.345Z,8.87
2023-02-05T20:41:59.313Z,7.73
2023-02-05T20:44:27.734Z,7.80
2023-02-05T20:46:55.832Z,7.57
2023-02-05T20:49:25.012Z,7.93
2023-02-05T20:51:53.981Z,8.27
2023-02-05T20:54:21.884Z,7.17
2023-02-05T20:56:51.326Z,7.97
2023-02-05T20:59:19.004Z,8.27
2023-02-05T21:01:46.820Z,7.97
2023-02-05T21:04:14.722Z,8.40
2023-02-05T21:06:43.872Z,7.73
2023-02-05T21:09:11.603Z,8.13
2023-02-05T21:11:39.877Z,6.93
2023-02-05T21:14:08.530Z,7.30
2023-02-05T21:16:37.605Z,7.77
2023-02-05T21:19:06.486Z,8.73
2023-02-05T21:21:36.176Z,8.50
2023-02-05T21:24:07.175Z,8.83
2023-02-05T21:26:37.179Z,8.67
2023-02-05T21:29:07.189Z,8.13
2023-02-05T21:31:39.348Z,7.43
2023-02-05T21:34:08.772Z,8.27
2023-02-05T21:36:36.709Z,8.00
2023-02-05T21:39:06.213Z,7.80
2023-02-05T21:41:34.109Z,7.47
2023-02-05T21:44:02.180Z,7.17
2023-02-05T21:46:30.898Z,7.30
2023-02-05T21:48:59.894Z,7.47
2023-02-05T21:51:29.311Z,7.77
2023-02-05T21:53:59.194Z,7.40
2023-02-05T21:56:30.718Z,7.50
2023-02-05T21:58:58.620Z,8.07
2023-02-05T22:01:27.661Z,7.40
2023-02-05T22:03:56.763Z,8.13
2023-02-05T22:06:25.970Z,7.43
2023-02-05T22:08:54.322Z,8.13
2023-02-05T22:11:23.183Z,7.87
2023-02-05T22:13:53.778Z,8.00
2023-02-05T22:16:23.250Z,9.07
2023-02-05T22:18:51.685Z,8.77
2023-02-05T22:21:21.484Z,8.03
2023-02-05T22:23:51.204Z,8.90
2023-02-05T22:26:20.689Z,9.27
2023-02-05T22:28:48.497Z,9.77
2023-02-05T22:31:22.339Z,9.87
2023-02-05T22:33:51.105Z,10.80
2023-02-05T22:36:20.962Z,11.07
2023-02-05T22:38:50.063Z,11.83
2023-02-05T22:41:20.167Z,10.67
2023-02-05T22:43:48.113Z,11.70
2023-02-05T22:46:19.626Z,12.60
2023-02-05T22:48:49.064Z,11.53
2023-02-05T22:51:19.529Z,14.00
2023-02-05T22:53:48.797Z,13.93
2023-02-05T22:56:17.696Z,13.67
2023-02-05T22:58:47.766Z,14.33
2023-02-05T23:01:18.911Z,14.73
2023-02-05T23:03:49.175Z,14.17
2023-02-05T23:06:18.887Z,15.27
2023-02-05T23:08:50.658Z,14.63
2023-02-05T23:11:18.307Z,13.70
2023-02-05T23:13:46.249Z,15.43
2023-02-05T23:16:15.695Z,13.87
2023-02-05T23:18:45.430Z,14.63
2023-02-05T23:21:16.373Z,14.60
2023-02-05T23:23:44.133Z,15.00
2023-02-05T23:26:14.444Z,14.73
2023-02-05T23:28:42.268Z,15.00
2023-02-05T23:31:10.029Z,14.83
2023-02-05T23:33:38.400Z,15.00
2023-02-05T23:36:08.774Z,15.20
2023-02-05T23:38:36.830Z,13.90
2023-02-05T23:41:05.830Z,14.50
2023-02-05T23:43:34.863Z,15.33
2023-02-05T23:46:02.632Z,15.00
2023-02-05T23:48:30.576Z,14.93
2023-02-05T23:50:58.290Z,15.27
2023-02-05T23:53:27.607Z,13.67
2023-02-05T23:55:56.075Z,15.17
2023-02-05T23:58:25.921Z,15.50
